Antioch, Nebraska
Current Conditions -  °F | °C
As of 9:53 PM on Sunday 23 Nov 2014 (Local Time) from KAIA Reporting Station
Broken Clouds Broken Clouds  
Wind Chill: 14°   Ceiling: 11000
Heat Index: 27°   Visibility: 10mi
Dew Point: 19°   Wind: 20mph
Humidity: 72%   Direction: 290°WNW
Pressure: 29.77"   Gusts: NA
Location:  42.1734°N, 102.461°W
Report Text: KAIA 240453Z AUTO 29017KT 10SM SCT080 BKN110 M03/M07 A2977 RMK AO2 SLP096 T10281072
Loading
Personal Weather Stations






























Interactive Weather Map New forecast layout! Learn more

10-Day Weather Forecast

Advertisements
Track Severe Weather on mobile